Time;durP1;ratioP1;P1;durP2;ratioP2;P2;SDS_P1;SDS_P2;PMS_P1;PMS_P2;Temp;Humidity;BMP_temperature;BMP_pressure;BME280_temperature;BME280_humidity;BME280_pressure;Samples;Min_cycle;Max_cycle;Signal;HPM_P1;HPM_P2
2021/11/25 00:01:20;;;;;;;;;5.00;4.00;;;;;20.23;35.07;100906.94;5003408;27;51897;-53
2021/11/25 00:03:46;;;;;;;;;5.25;4.50;;;;;20.22;34.83;100898.91;5001151;27;51306;-53
2021/11/25 00:06:11;;;;;;;;;4.50;4.00;;;;;20.21;35.10;100900.81;5000509;28;51162;-51
2021/11/25 00:08:36;;;;;;;;;5.75;4.75;;;;;20.19;35.13;100908.44;5001666;28;51254;-53
2021/11/25 00:11:02;;;;;;;;;4.75;4.75;;;;;20.17;35.02;100908.66;5026551;27;51616;-52
2021/11/25 00:13:27;;;;;;;;;5.00;4.50;;;;;20.16;35.14;100906.97;5005945;27;51110;-52
2021/11/25 00:15:53;;;;;;;;;5.25;5.25;;;;;20.14;35.21;100914.59;5042546;27;51272;-52
2021/11/25 00:18:18;;;;;;;;;5.00;5.00;;;;;20.12;35.07;100905.75;5006530;27;51422;-50
2021/11/25 00:20:45;;;;;;;;;4.25;4.25;;;;;20.11;35.18;100906.81;5000094;28;52790;-54
2021/11/25 00:23:10;;;;;;;;;8.50;6.00;;;;;20.10;35.09;100905.09;5001083;27;51284;-53
2021/11/25 00:25:36;;;;;;;;;4.75;4.50;;;;;20.09;35.04;100897.06;5003072;27;51115;-51
2021/11/25 00:28:01;;;;;;;;;6.00;6.00;;;;;20.08;35.13;100906.38;5002280;27;51014;-52
2021/11/25 00:30:27;;;;;;;;;5.00;4.50;;;;;20.06;35.24;100901.09;5037560;27;51123;-48
2021/11/25 00:32:52;;;;;;;;;5.75;5.00;;;;;20.05;34.91;100899.41;5008218;28;50946;-53
2021/11/25 00:35:18;;;;;;;;;4.75;4.25;;;;;20.04;35.07;100900.47;5003709;28;51064;-54
2021/11/25 00:37:43;;;;;;;;;4.75;4.50;;;;;20.02;35.14;100890.78;5003639;28;51086;-51
2021/11/25 00:40:13;;;;;;;;;7.00;5.50;;;;;20.02;35.04;100891.59;5033139;27;51972;-53
2021/11/25 00:42:39;;;;;;;;;5.50;4.75;;;;;20.00;35.25;100885.47;5021188;27;51418;-52
2021/11/25 00:45:05;;;;;;;;;6.00;4.25;;;;;20.00;34.88;100879.13;5013305;27;51203;-54
2021/11/25 00:47:31;;;;;;;;;6.00;4.75;;;;;19.98;35.21;100886.75;5012623;27;50915;-49
2021/11/25 00:49:56;;;;;;;;;6.00;5.50;;;;;19.96;35.28;100886.97;5005205;27;51993;-53
2021/11/25 00:52:22;;;;;;;;;5.50;4.50;;;;;19.96;35.11;100881.47;5003620;28;51103;-53
2021/11/25 00:54:47;;;;;;;;;4.50;4.50;;;;;19.96;35.27;100880.63;5003007;28;51087;-53
2021/11/25 00:57:12;;;;;;;;;5.25;4.25;;;;;19.94;35.32;100869.84;5004427;27;51017;-52
2021/11/25 00:59:38;;;;;;;;;4.00;4.00;;;;;19.92;35.29;100877.47;5012708;27;51781;-53
2021/11/25 01:02:03;;;;;;;;;5.50;5.50;;;;;19.92;35.49;100876.63;5012479;27;51086;-54
2021/11/25 01:04:29;;;;;;;;;7.00;5.25;;;;;19.92;35.37;100876.63;5007350;27;51283;-49
2021/11/25 01:06:54;;;;;;;;;5.00;5.00;;;;;19.89;35.25;100878.72;5005631;28;51220;-51
2021/11/25 01:09:20;;;;;;;;;5.25;5.00;;;;;19.88;35.39;100874.31;5012511;28;51657;-53
2021/11/25 01:11:45;;;;;;;;;5.00;5.00;;;;;19.87;35.06;100880.03;5013747;27;51213;-53
2021/11/25 01:14:12;;;;;;;;;5.00;5.00;;;;;19.87;35.55;100880.03;5006751;28;51192;-50
2021/11/25 01:16:37;;;;;;;;;5.50;4.50;;;;;19.86;35.45;100881.94;5010156;28;51232;-54
2021/11/25 01:19:03;;;;;;;;;5.25;4.50;;;;;19.85;35.23;100884.91;5004923;28;51100;-53
2021/11/25 01:21:28;;;;;;;;;7.00;5.00;;;;;19.81;35.28;100876.25;5000146;27;51039;-51
2021/11/25 01:23:54;;;;;;;;;8.00;5.00;;;;;19.82;35.16;100879.84;5010457;28;51372;-52
2021/11/25 01:26:19;;;;;;;;;6.00;6.00;;;;;19.81;35.23;100884.50;5004636;28;51196;-52
2021/11/25 01:28:44;;;;;;;;;5.00;4.75;;;;;19.80;35.24;100876.44;5013867;28;51114;-53
2021/11/25 01:31:10;;;;;;;;;5.50;4.00;;;;;19.79;35.19;100875.59;5005563;28;51130;-52
2021/11/25 01:33:35;;;;;;;;;4.50;4.50;;;;;19.78;35.35;100879.41;5005704;27;51037;-54
2021/11/25 01:36:01;;;;;;;;;5.00;4.75;;;;;19.77;35.29;100883.22;5011102;27;51278;-52
2021/11/25 01:38:28;;;;;;;;;5.75;4.00;;;;;19.77;35.08;100887.88;5005959;28;51238;-50
2021/11/25 01:40:54;;;;;;;;;6.50;5.25;;;;;19.76;35.53;100884.28;5012321;28;51074;-53
2021/11/25 01:43:21;;;;;;;;;5.00;5.00;;;;;19.74;35.46;100891.91;5003272;28;51178;-52
2021/11/25 01:45:49;;;;;;;;;6.25;6.25;;;;;19.74;35.47;100883.66;5003472;27;51239;-49
2021/11/25 01:48:14;;;;;;;;;6.25;5.00;;;;;19.74;35.44;100888.31;5005024;28;52715;-51
2021/11/25 01:50:40;;;;;;;;;5.25;4.75;;;;;19.72;35.31;100872.06;5004712;28;50992;-52
2021/11/25 01:53:05;;;;;;;;;3.75;3.75;;;;;19.72;35.47;100876.72;5003950;28;51105;-52
2021/11/25 01:55:31;;;;;;;;;8.25;4.25;;;;;19.70;35.14;100882.44;5010714;28;50974;-52
2021/11/25 01:57:57;;;;;;;;;5.75;4.25;;;;;19.68;35.49;100881.78;5008211;28;51082;-53
2021/11/25 02:00:49;;;;;;;;;5.50;4.50;;;;;19.68;35.48;100879.03;5010997;27;51142;-52
2021/11/25 02:03:15;;;;;;;;;6.50;5.75;;;;;19.69;35.50;100882.63;5002401;28;51315;-48
2021/11/25 02:05:41;;;;;;;;;3.75;3.75;;;;;19.66;35.41;100875.66;5005064;28;51196;-53
2021/11/25 02:08:07;;;;;;;;;6.25;6.25;;;;;19.65;35.58;100873.13;5003431;28;51251;-51
2021/11/25 02:10:34;;;;;;;;;4.00;4.00;;;;;19.67;35.30;100884.75;5012082;28;50966;-53
2021/11/25 02:12:59;;;;;;;;;6.00;5.00;;;;;19.64;35.51;100879.69;5025279;27;51183;-51
2021/11/25 02:15:25;;;;;;;;;4.50;2.50;;;;;19.63;35.28;100875.25;5004895;28;51119;-53
2021/11/25 02:17:50;;;;;;;;;4.50;3.00;;;;;19.62;35.18;100877.16;4994483;27;51714;-53
2021/11/25 02:20:16;;;;;;;;;4.25;3.00;;;;;19.61;35.38;100878.22;5014476;27;51547;-48
2021/11/25 02:22:43;;;;;;;;;7.00;7.00;;;;;19.60;35.32;100871.88;5010882;27;51068;-53
2021/11/25 02:25:10;;;;;;;;;4.00;4.00;;;;;19.60;35.50;100879.28;5004516;28;51096;-53
2021/11/25 02:27:36;;;;;;;;;6.00;4.25;;;;;19.60;35.69;100871.03;5011363;28;51023;-53
2021/11/25 02:30:04;;;;;;;;;6.25;3.25;;;;;19.57;35.51;100872.28;5005722;27;51556;-51
2021/11/25 02:32:29;;;;;;;;;4.50;4.50;;;;;19.57;35.47;100864.03;4998036;28;51009;-53
2021/11/25 02:34:55;;;;;;;;;4.33;4.33;;;;;19.56;35.61;100854.13;5009848;28;51137;-53
2021/11/25 02:37:20;;;;;;;;;5.00;4.00;;;;;19.55;35.55;100863.44;5013006;27;51686;-49
2021/11/25 02:39:47;;;;;;;;;5.00;5.00;;;;;19.54;35.55;100867.19;5004398;27;51108;-50
2021/11/25 02:42:12;;;;;;;;;5.00;4.75;;;;;19.54;35.48;100864.44;5007954;28;51205;-53
2021/11/25 02:44:38;;;;;;;;;4.00;4.00;;;;;19.53;35.61;100860.03;5004747;27;51232;-48
2021/11/25 02:47:03;;;;;;;;;3.75;3.75;;;;;19.52;35.54;100858.34;5007573;28;51805;-53
2021/11/25 02:49:28;;;;;;;;;5.00;4.00;;;;;19.52;35.41;100866.56;5005876;28;51098;-51
2021/11/25 02:51:54;;;;;;;;;7.00;4.00;;;;;19.50;35.43;100859.63;5004042;28;51151;-52
2021/11/25 02:54:19;;;;;;;;;5.25;4.25;;;;;19.50;35.41;100852.22;5006279;28;51308;-52
2021/11/25 02:56:44;;;;;;;;;5.50;4.00;;;;;19.49;35.44;100856.03;5011389;27;51041;-52
2021/11/25 02:59:10;;;;;;;;;5.00;4.25;;;;;19.49;35.14;100853.28;5006683;28;51218;-52
2021/11/25 03:01:37;;;;;;;;;3.25;2.50;;;;;19.48;35.44;100850.72;5007108;28;51114;-50
2021/11/25 03:04:05;;;;;;;;;4.00;3.75;;;;;19.47;35.54;100860.03;4997466;27;52544;-52
2021/11/25 03:06:31;;;;;;;;;4.25;3.00;;;;;19.46;35.38;100858.34;5002827;28;51332;-52
2021/11/25 03:08:57;;;;;;;;;4.75;4.75;;;;;19.45;35.28;100862.16;5002008;28;51223;-53
2021/11/25 03:11:25;;;;;;;;;2.25;2.25;;;;;19.44;35.48;100861.31;5003051;27;51189;-50
2021/11/25 03:13:54;;;;;;;;;5.50;4.00;;;;;19.43;35.39;100856.88;5012370;27;50960;-53
2021/11/25 03:16:22;;;;;;;;;4.00;4.00;;;;;19.42;35.38;100848.84;5004469;27;51801;-51
2021/11/25 03:18:48;;;;;;;;;5.00;3.00;;;;;19.42;35.55;100851.59;5003555;28;51443;-51
2021/11/25 03:21:15;;;;;;;;;4.25;4.00;;;;;19.40;35.46;100846.31;5007494;28;50984;-53
2021/11/25 03:23:42;;;;;;;;;4.50;4.50;;;;;19.40;35.24;100848.22;4996337;28;51088;-49
2021/11/25 03:26:08;;;;;;;;;4.00;4.00;;;;;19.39;35.57;100841.91;5008823;28;51043;-47
2021/11/25 03:28:40;;;;;;;;;3.00;3.00;;;;;19.39;35.51;100833.66;5007419;28;51491;-53
2021/11/25 03:31:06;;;;;;;;;4.00;4.00;;;;;19.38;35.45;100829.19;5000300;28;51172;-51
2021/11/25 03:33:32;;;;;;;;;2.50;2.50;;;;;19.37;35.74;100841.25;4995067;28;51044;-52
2021/11/25 03:36:00;;;;;;;;;4.75;4.75;;;;;19.37;35.55;100837.66;4997850;28;52030;-52
2021/11/25 03:38:25;;;;;;;;;3.00;3.00;;;;;19.36;35.36;100836.81;5000913;28;51303;-53
2021/11/25 03:40:52;;;;;;;;;3.00;3.00;;;;;19.37;35.35;100835.75;5002357;27;51439;-52
2021/11/25 03:43:18;;;;;;;;;4.50;3.75;;;;;19.35;35.37;100840.63;5003670;28;51167;-53
2021/11/25 03:45:44;;;;;;;;;3.75;3.75;;;;;19.35;35.25;100839.78;5005044;28;52038;-52
2021/11/25 03:48:10;;;;;;;;;3.50;2.75;;;;;19.33;35.52;100840.84;4993719;28;50935;-51
2021/11/25 03:50:35;;;;;;;;;2.75;2.75;;;;;19.32;35.62;100844.66;5001740;28;51181;-49
2021/11/25 03:53:01;;;;;;;;;3.00;3.00;;;;;19.32;35.51;100843.81;5038101;27;51244;-53
2021/11/25 03:55:27;;;;;;;;;3.00;2.00;;;;;19.31;35.56;100833.88;5010294;27;51165;-53
2021/11/25 03:57:53;;;;;;;;;4.00;4.00;;;;;19.30;35.36;100830.28;5000536;27;51177;-53
2021/11/25 04:00:21;;;;;;;;;4.25;4.25;;;;;19.30;35.71;100837.69;5000839;28;51179;-51
2021/11/25 04:02:49;;;;;;;;;4.00;4.00;;;;;19.30;35.49;100837.69;5006839;28;51258;-52
2021/11/25 04:05:16;;;;;;;;;3.50;3.50;;;;;19.29;35.37;100838.75;5003131;28;51196;-52
2021/11/25 04:07:42;;;;;;;;;4.25;2.25;;;;;19.27;35.47;100836.19;4996861;28;51375;-52
2021/11/25 04:10:11;;;;;;;;;5.00;3.00;;;;;19.27;35.58;100836.19;5006445;27;51004;-52
2021/11/25 04:12:36;;;;;;;;;4.00;3.25;;;;;19.27;35.59;100829.84;4988575;28;51127;-52
2021/11/25 04:15:04;;;;;;;;;3.00;3.00;;;;;19.25;35.59;100830.06;5021728;27;51191;-51
2021/11/25 04:17:30;;;;;;;;;4.00;4.00;;;;;19.25;35.05;100824.59;5011033;28;51257;-53
2021/11/25 04:19:55;;;;;;;;;5.00;3.00;;;;;19.24;35.49;100824.81;5002970;28;51156;-52
2021/11/25 04:22:21;;;;;;;;;5.00;5.00;;;;;19.24;35.60;100831.13;5002786;28;51392;-49
2021/11/25 04:24:51;;;;;;;;;5.25;3.25;;;;;19.23;35.73;100834.09;4996343;27;52755;-52
2021/11/25 04:27:17;;;;;;;;;3.75;3.75;;;;;19.23;35.40;100839.59;4998460;28;51371;-52
2021/11/25 04:29:46;;;;;;;;;5.00;4.75;;;;;19.22;35.51;100835.16;5009230;28;51179;-53
2021/11/25 04:37:40;;;;;;;;;3.25;3.25;;;;;19.21;35.41;100833.47;5006281;28;51036;-53
2021/11/25 04:40:07;;;;;;;;;4.00;4.00;;;;;19.20;35.61;100831.78;5006865;27;51001;-52
2021/11/25 04:42:32;;;;;;;;;4.75;4.75;;;;;19.18;35.66;100840.25;5011462;28;51233;-52
2021/11/25 04:44:57;;;;;;;;;5.00;5.00;;;;;19.18;35.65;100833.91;5010241;27;51813;-53
2021/11/25 04:47:23;;;;;;;;;7.50;5.00;;;;;19.17;35.52;100834.94;5007859;28;50940;-52
2021/11/25 04:49:48;;;;;;;;;5.25;4.25;;;;;19.18;35.53;100842.16;5007803;27;51059;-53
2021/11/25 04:52:14;;;;;;;;;4.50;4.50;;;;;19.16;35.52;100836.00;5010249;27;51085;-52
2021/11/25 04:54:39;;;;;;;;;4.50;4.50;;;;;19.16;35.53;100836.84;5011842;27;51078;-49
2021/11/25 04:57:05;;;;;;;;;6.00;5.25;;;;;19.15;35.57;100828.81;5035036;27;51183;-50
2021/11/25 04:59:31;;;;;;;;;6.75;5.75;;;;;19.14;35.56;100836.22;5008177;28;51551;-51
2021/11/25 05:01:56;;;;;;;;;7.25;6.00;;;;;19.13;35.52;100836.44;5008778;27;51131;-50
2021/11/25 05:04:21;;;;;;;;;5.75;5.50;;;;;19.13;35.73;100836.44;5002794;28;51775;-50
2021/11/25 05:06:47;;;;;;;;;7.50;6.00;;;;;19.13;35.36;100828.19;5003294;28;51062;-52
2021/11/25 05:09:13;;;;;;;;;6.50;6.50;;;;;19.12;35.64;100840.25;5035432;27;51131;-48
2021/11/25 05:11:39;;;;;;;;;7.50;6.50;;;;;19.10;35.64;100837.72;5003458;28;50931;-52
2021/11/25 05:14:04;;;;;;;;;10.50;6.00;;;;;19.10;35.57;100837.72;5028494;27;53657;-51
2021/11/25 05:16:29;;;;;;;;;9.00;9.00;;;;;19.09;35.52;100838.78;5006204;27;51126;-53
2021/11/25 05:18:55;;;;;;;;;6.25;6.25;;;;;19.08;35.53;100834.34;5005529;27;51148;-52
2021/11/25 05:21:20;;;;;;;;;8.75;8.00;;;;;19.08;35.83;100828.00;5006815;28;51339;-53
2021/11/25 05:23:46;;;;;;;;;7.75;7.00;;;;;19.08;35.38;100830.75;5009247;28;52028;-51
2021/11/25 05:26:11;;;;;;;;;13.50;11.00;;;;;19.08;35.70;100833.50;5009240;28;51023;-51
2021/11/25 05:28:37;;;;;;;;;10.75;8.00;;;;;19.07;35.66;100821.69;5015112;28;51070;-52
2021/11/25 05:31:02;;;;;;;;;11.00;9.25;;;;;19.04;35.58;100836.66;5007973;28;51288;-49
2021/11/25 05:33:28;;;;;;;;;33.50;27.50;;;;;19.02;34.43;100840.69;4999922;28;51963;-49
2021/11/25 05:35:53;;;;;;;;;32.25;29.50;;;;;18.96;34.73;100841.50;5002657;28;51118;-50
2021/11/25 05:38:18;;;;;;;;;33.75;32.00;;;;;18.89;34.48;100835.22;5004194;28;51401;-50
2021/11/25 05:40:45;;;;;;;;;41.25;33.75;;;;;18.83;34.28;100831.38;5009438;27;51473;-51
2021/11/25 05:43:10;;;;;;;;;30.25;27.75;;;;;18.78;34.33;100822.97;5007138;28;52078;-55
2021/11/25 05:45:36;;;;;;;;;34.00;31.00;;;;;18.75;34.31;100820.63;5006227;27;51256;-48
2021/11/25 05:48:01;;;;;;;;;28.50;26.00;;;;;18.76;34.22;100841.53;5005434;27;51055;-51
2021/11/25 05:50:27;;;;;;;;;29.25;24.25;;;;;18.81;34.21;100835.41;5007820;28;51152;-52
2021/11/25 05:52:55;;;;;;;;;32.75;26.50;;;;;18.88;34.20;100842.59;5015040;27;51725;-53
2021/11/25 05:55:23;;;;;;;;;32.00;27.00;;;;;18.95;34.18;100837.09;5007504;28;51062;-50
2021/11/25 05:57:49;;;;;;;;;26.25;21.75;;;;;19.02;34.30;100841.53;5008741;28;51201;-57
2021/11/25 06:00:15;;;;;;;;;22.00;19.75;;;;;19.10;34.38;100845.13;5041140;27;51134;-53
2021/11/25 06:02:43;;;;;;;;;18.00;15.00;;;;;19.18;34.26;100845.75;5020437;27;51696;-53
2021/11/25 06:05:09;;;;;;;;;25.00;19.75;;;;;19.26;34.72;100856.47;5009250;27;51112;-52
2021/11/25 06:07:34;;;;;;;;;17.00;15.25;;;;;19.33;34.62;100862.81;5027621;27;51003;-52
2021/11/25 06:10:00;;;;;;;;;14.50;14.25;;;;;19.42;34.60;100870.84;5005216;27;51165;-53
2021/11/25 06:12:25;;;;;;;;;18.75;16.75;;;;;19.49;34.63;100868.94;5004973;28;51807;-48
2021/11/25 06:14:51;;;;;;;;;16.75;14.50;;;;;19.56;34.92;100870.59;5008795;28;51032;-52
2021/11/25 06:17:16;;;;;;;;;13.75;11.75;;;;;19.64;34.89;100871.44;5009812;27;50971;-50
2021/11/25 06:19:41;;;;;;;;;14.00;10.25;;;;;19.72;34.60;100871.22;5005301;27;51150;-47
2021/11/25 06:22:07;;;;;;;;;14.25;12.50;;;;;19.79;34.50;100874.75;5004806;27;51260;-50
2021/11/25 06:24:32;;;;;;;;;17.00;14.00;;;;;19.85;34.77;100872.00;5008515;28;51035;-50
2021/11/25 06:26:58;;;;;;;;;12.75;11.50;;;;;19.89;34.81;100861.41;5006163;27;51543;-53
2021/11/25 06:29:23;;;;;;;;;16.50;11.75;;;;;19.97;34.74;100871.31;5009115;28;51312;-49
2021/11/25 06:31:48;;;;;;;;;12.25;11.00;;;;;20.04;34.83;100878.47;5007041;27;52797;-53
2021/11/25 06:34:14;;;;;;;;;11.75;9.25;;;;;20.11;35.31;100881.19;5010626;28;51081;-53
2021/11/25 06:36:39;;;;;;;;;13.50;11.25;;;;;20.17;34.88;100878.41;4999432;27;51450;-52
2021/11/25 06:39:06;;;;;;;;;9.50;9.50;;;;;20.24;34.78;100880.28;5005854;28;51159;-53
2021/11/25 06:41:32;;;;;;;;;8.50;8.25;;;;;20.29;34.51;100873.06;5001697;28;52443;-54
2021/11/25 06:43:57;;;;;;;;;10.00;9.00;;;;;20.34;34.53;100870.50;4995640;27;51116;-53
2021/11/25 06:46:23;;;;;;;;;15.50;13.25;;;;;20.39;34.20;100875.31;5005066;28;51331;-53
2021/11/25 06:48:48;;;;;;;;;9.25;8.50;;;;;20.44;34.52;100867.28;5003516;28;51432;-52
2021/11/25 06:51:13;;;;;;;;;11.25;10.00;;;;;20.50;34.89;100880.16;5000488;28;51949;-51
2021/11/25 06:53:39;;;;;;;;;10.75;9.25;;;;;20.52;34.72;100878.00;4998998;27;51094;-50
2021/11/25 06:56:04;;;;;;;;;12.00;10.50;;;;;20.55;34.63;100874.00;4995398;28;51191;-50
2021/11/25 06:58:30;;;;;;;;;11.75;11.75;;;;;20.55;34.47;100872.09;5001268;28;52175;-53
2021/11/25 07:00:56;;;;;;;;;9.75;9.75;;;;;20.58;34.76;100887.31;5000613;28;52520;-54
2021/11/25 07:03:22;;;;;;;;;15.25;9.00;;;;;20.58;34.78;100887.31;5012494;28;51162;-49
2021/11/25 07:05:47;;;;;;;;;14.25;10.00;;;;;20.60;34.53;100891.53;5004466;28;51102;-54
2021/11/25 07:08:12;;;;;;;;;11.50;9.00;;;;;20.61;34.48;100895.94;4993381;28;51327;-53
2021/11/25 07:10:38;;;;;;;;;9.50;9.00;;;;;20.65;34.69;100904.63;5001214;27;51950;-52
2021/11/25 07:13:03;;;;;;;;;9.00;8.50;;;;;20.69;34.48;100909.44;5005468;28;51124;-54
2021/11/25 07:15:29;;;;;;;;;12.00;9.75;;;;;20.73;34.44;100918.09;4998402;27;51132;-53
2021/11/25 07:17:56;;;;;;;;;13.75;10.75;;;;;20.78;34.74;100917.44;5006776;28;51375;-50
2021/11/25 07:20:22;;;;;;;;;14.25;11.25;;;;;20.81;34.44;100912.34;4995689;27;51998;-53
2021/11/25 07:22:48;;;;;;;;;11.00;9.75;;;;;20.82;34.96;100919.53;5012019;28;51070;-53
2021/11/25 07:25:16;;;;;;;;;11.25;11.25;;;;;20.83;34.99;100906.59;5012377;28;51018;-54
2021/11/25 07:27:42;;;;;;;;;11.00;9.25;;;;;20.84;35.09;100920.16;5013348;28;51246;-52
2021/11/25 07:30:10;;;;;;;;;14.75;11.25;;;;;20.83;34.59;100920.38;5005678;28;51919;-51
2021/11/25 07:32:36;;;;;;;;;12.50;10.25;;;;;20.84;35.16;100922.91;5012407;28;51154;-51
2021/11/25 07:35:03;;;;;;;;;10.00;9.50;;;;;20.85;35.16;100927.38;5011762;27;51213;-52
2021/11/25 07:37:28;;;;;;;;;10.00;9.50;;;;;20.87;35.06;100936.22;5012349;27;51025;-49
2021/11/25 07:39:54;;;;;;;;;10.50;10.00;;;;;20.91;34.96;100936.63;5011939;27;54493;-53
2021/11/25 07:42:19;;;;;;;;;14.00;9.50;;;;;20.94;35.25;100936.16;5007584;27;51136;-52
2021/11/25 07:44:44;;;;;;;;;11.75;9.75;;;;;21.00;35.08;100960.06;5002836;27;51175;-53
2021/11/25 07:47:10;;;;;;;;;12.50;8.75;;;;;21.03;35.03;100954.09;5001221;27;51246;-52
2021/11/25 07:49:37;;;;;;;;;14.50;11.25;;;;;21.06;34.81;100964.69;5017943;27;51798;-52
2021/11/25 07:52:03;;;;;;;;;10.75;7.50;;;;;21.08;34.89;100968.06;5019134;28;51346;-51
2021/11/25 07:54:29;;;;;;;;;10.75;9.50;;;;;21.08;34.80;100962.56;5014035;28;51263;-50
2021/11/25 07:56:57;;;;;;;;;12.25;9.00;;;;;21.08;35.08;100962.56;5018462;27;51349;-53
2021/11/25 07:59:25;;;;;;;;;10.25;9.00;;;;;21.06;34.68;100964.69;5018207;28;52822;-52
2021/11/25 08:01:51;;;;;;;;;12.00;10.00;;;;;21.06;34.83;100964.69;5017988;28;51257;-54
2021/11/25 08:04:16;;;;;;;;;17.25;15.00;;;;;21.05;34.73;100976.78;5012911;28;51730;-52
2021/11/25 08:06:41;;;;;;;;;24.25;16.50;;;;;21.00;34.84;100971.94;5017621;28;50917;-48
2021/11/25 08:09:06;;;;;;;;;14.75;12.50;;;;;20.94;34.48;100971.97;5018436;27;51986;-53
2021/11/25 08:11:32;;;;;;;;;17.25;14.25;;;;;20.89;34.61;100983.66;5018889;28;51082;-48
2021/11/25 08:13:57;;;;;;;;;18.00;14.25;;;;;20.84;34.54;100986.25;5018803;27;51115;-54
2021/11/25 08:16:22;;;;;;;;;16.00;13.25;;;;;20.81;34.24;100983.06;5018748;27;51661;-53
2021/11/25 08:18:48;;;;;;;;;16.50;15.50;;;;;20.77;34.59;100990.09;5018086;28;54750;-52
2021/11/25 08:21:14;;;;;;;;;17.25;14.00;;;;;20.72;34.58;100988.00;5018784;28;50995;-53
2021/11/25 08:23:39;;;;;;;;;16.25;15.00;;;;;20.67;34.44;100987.81;5018986;27;51336;-52
2021/11/25 08:26:06;;;;;;;;;12.00;12.00;;;;;20.64;34.45;100996.53;5020753;27;51243;-53
2021/11/25 08:28:32;;;;;;;;;14.00;12.25;;;;;20.59;34.86;100997.16;5038372;28;51952;-50
2021/11/25 08:30:57;;;;;;;;;15.75;13.00;;;;;20.55;34.64;100998.69;5038218;28;51137;-52
2021/11/25 08:33:22;;;;;;;;;14.50;13.00;;;;;20.51;34.79;100997.41;5038179;28;51196;-49
2021/11/25 08:35:49;;;;;;;;;11.00;11.00;;;;;20.46;34.99;100994.50;5038668;28;51470;-53
2021/11/25 08:38:15;;;;;;;;;12.00;10.25;;;;;20.43;34.45;100992.19;5037921;28;51928;-53
2021/11/25 08:40:41;;;;;;;;;14.50;12.00;;;;;20.39;34.66;100999.97;5038520;28;51145;-53
2021/11/25 08:43:06;;;;;;;;;18.25;15.00;;;;;20.35;34.71;101007.00;5038251;28;51660;-52
2021/11/25 08:45:33;;;;;;;;;16.50;14.25;;;;;20.32;34.98;101001.06;5038468;28;51139;-52
2021/11/25 08:48:02;;;;;;;;;11.00;10.00;;;;;20.28;35.00;100997.91;5037649;28;51060;-53
2021/11/25 08:50:27;;;;;;;;;12.25;9.50;;;;;20.25;35.19;101001.09;5037796;28;51042;-53
2021/11/25 08:52:52;;;;;;;;;16.25;13.00;;;;;20.22;35.02;100997.91;5038363;28;51626;-51
2021/11/25 08:55:18;;;;;;;;;14.00;11.75;;;;;20.17;35.04;100988.41;5037089;28;50983;-52
2021/11/25 08:57:45;;;;;;;;;10.00;8.75;;;;;20.16;35.01;100986.75;5034273;28;52479;-53
2021/11/25 09:00:11;;;;;;;;;13.50;11.50;;;;;20.13;35.09;100992.69;5034556;28;50968;-54
2021/11/25 09:02:37;;;;;;;;;15.50;12.50;;;;;20.10;34.78;100997.75;5034346;28;51182;-52
2021/11/25 09:05:03;;;;;;;;;15.75;14.00;;;;;20.08;34.82;101002.63;5034932;28;51430;-53
2021/11/25 09:07:28;;;;;;;;;13.75;11.75;;;;;20.05;34.83;101001.16;5034350;28;53029;-51
2021/11/25 09:09:54;;;;;;;;;15.75;15.75;;;;;20.03;35.20;100995.03;5034621;28;51120;-51
2021/11/25 09:12:19;;;;;;;;;16.50;11.50;;;;;20.01;35.06;100994.41;5034398;28;51270;-53
2021/11/25 09:14:44;;;;;;;;;8.75;7.75;;;;;19.99;35.30;100984.66;5030995;28;51149;-55
2021/11/25 09:17:10;;;;;;;;;12.75;11.00;;;;;19.98;35.05;100982.97;5014110;27;51106;-52
2021/11/25 09:19:35;;;;;;;;;18.50;12.75;;;;;19.95;34.93;100981.50;5014523;28;51123;-55
2021/11/25 09:22:00;;;;;;;;;11.50;9.25;;;;;19.93;35.20;100975.38;5014478;28;51090;-53
2021/11/25 09:24:26;;;;;;;;;13.00;11.00;;;;;19.92;35.10;100979.19;5014597;28;51158;-51
2021/11/25 09:26:51;;;;;;;;;14.25;13.25;;;;;19.89;35.25;100974.94;5005009;28;51885;-53
2021/11/25 09:29:20;;;;;;;;;14.25;12.50;;;;;19.88;35.14;100987.00;5034636;28;51029;-55
2021/11/25 09:31:45;;;;;;;;;12.75;10.25;;;;;19.86;35.04;100980.06;5034104;28;51070;-53
2021/11/25 09:34:10;;;;;;;;;11.25;11.25;;;;;19.85;35.02;100979.22;5034080;28;50866;-51
2021/11/25 09:36:37;;;;;;;;;17.50;12.25;;;;;19.83;35.24;100967.59;5034048;28;51011;-55
2021/11/25 09:39:05;;;;;;;;;14.50;12.50;;;;;19.81;35.32;100971.63;5034005;28;51102;-52
2021/11/25 09:41:30;;;;;;;;;14.75;11.25;;;;;19.80;35.42;100973.53;5034128;28;51284;-54
2021/11/25 09:43:56;;;;;;;;;19.00;14.25;;;;;19.79;35.11;100970.97;5034773;28;51323;-55
2021/11/25 09:46:22;;;;;;;;;16.00;11.25;;;;;19.78;35.22;100972.03;5033968;28;51150;-54
2021/11/25 09:48:48;;;;;;;;;16.00;12.25;;;;;19.77;35.40;100973.94;5033739;27;51163;-53
2021/11/25 09:51:14;;;;;;;;;12.50;12.50;;;;;19.77;35.22;100973.09;5033895;28;51225;-51
2021/11/25 09:53:39;;;;;;;;;13.00;12.00;;;;;19.75;35.33;100967.81;5034263;28;51285;-54
2021/11/25 09:56:07;;;;;;;;;13.25;13.00;;;;;19.75;35.39;100964.22;5015430;28;52537;-53
2021/11/25 09:58:35;;;;;;;;;15.75;12.75;;;;;19.74;35.29;100968.88;5033740;28;51088;-54
2021/11/25 10:01:11;;;;;;;;;12.00;11.25;;;;;19.74;34.89;100974.38;5033935;28;51182;-52
2021/11/25 10:03:38;;;;;;;;;16.50;13.50;;;;;19.73;35.34;100978.19;5016307;28;51103;-53
2021/11/25 10:06:04;;;;;;;;;15.00;11.00;;;;;19.73;35.17;100986.44;5033139;28;51767;-53
2021/11/25 10:08:36;;;;;;;;;15.75;14.25;;;;;19.74;35.37;100973.53;5033286;28;51421;-51
2021/11/25 10:11:09;;;;;;;;;12.50;11.50;;;;;19.75;35.47;100983.47;5033721;28;51119;-51
2021/11/25 10:13:46;;;;;;;;;14.50;12.00;;;;;19.74;35.50;100987.28;5033506;28;50965;-52
2021/11/25 10:16:17;;;;;;;;;16.75;12.50;;;;;19.74;35.45;100992.75;5017845;28;51078;-49
2021/11/25 10:18:44;;;;;;;;;14.50;12.00;;;;;19.74;35.53;100981.78;5012900;28;51068;-54
2021/11/25 10:21:18;;;;;;;;;11.00;10.25;;;;;19.75;35.57;100983.47;5013515;27;51038;-54
2021/11/25 10:23:46;;;;;;;;;14.75;13.25;;;;;19.74;35.37;100976.28;5013623;28;51184;-49
2021/11/25 10:26:16;;;;;;;;;17.50;15.00;;;;;19.73;35.15;100975.44;5016184;27;51915;-54
2021/11/25 10:28:50;;;;;;;;;16.50;14.50;;;;;19.72;35.26;100973.75;5033409;28;51592;-51
2021/11/25 10:31:18;;;;;;;;;15.75;13.00;;;;;19.72;35.34;100972.91;5033341;28;51170;-54
2021/11/25 10:34:02;;;;;;;;;15.25;13.25;;;;;19.71;35.13;100969.31;5033149;28;51300;-51
2021/11/25 10:39:11;;;;;;;;;12.75;12.75;;;;;19.71;35.27;100971.22;5032535;28;50970;-53
2021/11/25 10:41:39;;;;;;;;;16.50;14.00;;;;;19.69;35.52;100963.16;5014746;28;51058;-54
2021/11/25 10:44:19;;;;;;;;;14.75;13.00;;;;;19.68;35.60;100972.47;5033147;28;51231;-52
2021/11/25 10:47:11;;;;;;;;;17.25;15.50;;;;;19.67;35.56;100969.94;5032681;28;52172;-53
2021/11/25 10:49:42;;;;;;;;;13.25;13.25;;;;;19.65;35.41;100972.91;5032324;28;51013;-53
2021/11/25 10:52:16;;;;;;;;;11.50;11.25;;;;;19.64;35.55;100971.22;5032632;28;51216;-52
2021/11/25 10:54:45;;;;;;;;;13.50;11.75;;;;;19.64;35.44;100967.63;5032725;28;50898;-52
2021/11/25 10:57:11;;;;;;;;;16.50;14.25;;;;;19.61;35.44;100960.66;5032812;28;51802;-53
2021/11/25 10:59:39;;;;;;;;;15.75;15.00;;;;;19.59;35.61;100949.88;5032884;28;51015;-52
2021/11/25 11:02:18;;;;;;;;;13.50;13.00;;;;;19.59;35.31;100954.50;5014429;28;50989;-51
2021/11/25 11:04:46;;;;;;;;;17.25;14.25;;;;;19.58;35.45;100952.81;5032966;28;51135;-52
2021/11/25 11:07:26;;;;;;;;;17.25;14.00;;;;;19.57;35.46;100951.13;5032482;28;52903;-51
2021/11/25 11:09:52;;;;;;;;;15.50;13.00;;;;;19.56;35.41;100949.44;5032759;28;51572;-50
2021/11/25 11:12:27;;;;;;;;;18.00;13.00;;;;;19.55;35.47;100939.47;5032476;28;51099;-51
2021/11/25 11:14:57;;;;;;;;;19.00;14.75;;;;;19.54;35.51;100940.53;5031102;27;51176;-52
2021/11/25 11:17:30;;;;;;;;;16.00;15.25;;;;;19.53;35.42;100936.97;5012248;28;52599;-53
2021/11/25 11:20:05;;;;;;;;;16.25;14.25;;;;;19.54;35.36;100946.03;5011142;28;50984;-48
2021/11/25 11:22:30;;;;;;;;;14.00;14.00;;;;;19.51;35.60;100941.81;5012671;28;51053;-53